EW0458 Weather Reports


time (UTC)temp
C
wind
direction
speed
KPH
gust
KPH
rain 1hr
cm
rain 24hr
cm
rain mn
cm
humidity
%
barometer
mb
20200227122209 3 98 1.6 9.7 0.05 0.43 0.30 92 995.7
20200227121211 3 128 3.2 9.7 0.03 0.41 0.28 90 996.0
20200227120207 3 115 3.2 8.0 0.03 0.41 0.28 89 996.2
20200227115208 3 157 3.2 8.0 0.00 0.38 0.25 88 996.5
20200227114207 3 131 3.2 12.9 0.00 0.38 0.25 88 996.7
20200227113207 4 103 3.2 12.9 0.00 0.38 0.25 86 996.9
20200227112211 4 240 1.6 11.3 0.00 0.38 0.25 86 997.1
20200227111210 4 152 1.6 6.4 0.00 0.38 0.25 86 997.4
20200227110207 4 120 1.6 8.0 0.00 0.38 0.25 87 997.6
20200227105210 4 194 1.6 9.7 0.00 0.38 0.25 88 997.9
20200227104209 3 70 3.2 8.0 0.00 0.38 0.25 88 998.1
20200227103209 3 191 1.6 11.3 0.00 0.38 0.25 89 998.3
20200227102209 3 124 1.6 11.3 0.00 0.38 0.25 90 998.5
20200227101209 3 121 3.2 9.7 0.00 0.41 0.25 91 998.6
20200227100210 3 159 1.6 8.0 0.00 0.43 0.25 93 998.9
20200227095210 3 94 1.6 6.4 0.00 0.48 0.25 92 999.2
20200227094208 3 141 1.6 6.4 0.00 0.58 0.25 92 999.3
20200227093209 3 120 1.6 9.7 0.00 0.64 0.25 92 999.6
20200227092208 2 148 1.6 11.3 0.00 0.71 0.25 92 999.8
20200227091207 2 141 1.6 11.3 0.00 0.74 0.25 92 1000.1
20200227090208 2 135 1.6 8.0 0.00 0.76 0.25 93 1000.3
20200227085208 2 90 1.6 6.4 0.00 0.76 0.25 94 1000.4
20200227084209 2 181 1.6 9.7 0.00 0.76 0.25 94 1000.5
20200227083210 2 142 1.6 9.7 0.00 0.76 0.25 94 1000.8
20200227082209 2 176 1.6 6.4 0.03 0.76 0.25 95 1001.0
20200227081209 2 200 1.6 4.8 0.03 0.76 0.25 95 1001.2
20200227080209 1 144 1.6 6.4 0.03 0.76 0.25 95 1001.3
20200227075211 1 127 3.2 9.7 0.03 0.76 0.25 96 1001.5
20200227074208 1 167 1.6 9.7 0.03 0.76 0.25 96 1001.5
20200227073207 1 125 1.6 8.0 0.00 0.74 0.23 96 1001.7
20200227072210 1 141 1.6 8.0 0.00 0.74 0.23 96 1001.9
20200227071209 1 131 0.0 3.2 0.00 0.74 0.23 96 1002.0
20200227070210 1 143 0.0 3.2 0.00 0.74 0.23 96 1002.1
20200227065209 1 210 0.0 4.8 0.00 0.74 0.23 96 1002.2
20200227064208 1 147 0.0 4.8 0.00 0.74 0.23 96 1002.2
20200227063208 1 84 0.0 4.8 0.00 0.74 0.23 96 1002.5
20200227062208 1 94 0.0 4.8 0.00 0.74 0.23 96 1002.5
20200227061208 1 137 0.0 4.8 0.00 0.74 0.23 96 1002.7
20200227060208 1 155 0.0 9.7 0.00 0.74 0.23 96 1002.8
20200227055208 1 93 0.0 9.7 0.00 0.74 0.23 97 1002.9
20200227054208 1 196 0.0 8.0 0.00 0.74 0.23 97 1003.1
20200227053208 1 141 0.0 8.0 0.00 0.74 0.23 97 1003.2
20200227052208 1 123 0.0 4.8 0.00 0.74 0.23 97 1003.4
20200227051209 1 120 0.0 3.2 0.00 0.74 0.23 97 1003.5
20200227050208 1 244 0.0 3.2 0.00 0.74 0.23 96 1003.7
20200227045209 1 137 0.0 3.2 0.00 0.74 0.23 96 1003.8
20200227044209 1 117 0.0 1.6 0.00 0.74 0.23 96 1004.0
20200227043208 1 200 0.0 3.2 0.00 0.76 0.23 96 1004.0
20200227042209 1 124 0.0 3.2 0.00 0.76 0.23 96 1004.2
20200227041209 1 193 0.0 3.2 0.00 0.76 0.23 96 1004.4
20200227040208 1 174 0.0 3.2 0.00 0.76 0.23 96 1004.5
20200227035209 1 135 0.0 3.2 0.00 0.79 0.23 96 1004.5
20200227034208 1 276 0.0 3.2 0.00 0.79 0.23 96 1004.6
20200227033207 1 146 0.0 1.6 0.00 0.79 0.23 96 1004.6
20200227032209 1 89 0.0 1.6 0.00 0.79 0.23 96 1004.6
20200227031208 1 132 0.0 3.2 0.00 0.81 0.23 96 1004.8
20200227030209 1 146 0.0 3.2 0.03 0.84 0.23 96 1004.8
20200227025208 1 108 0.0 1.6 0.08 0.84 0.23 96 1004.9
20200227024208 1 137 0.0 3.2 0.23 0.89 0.23 95 1005.0
20200227023210 1 204 0.0 1.6 0.23 0.91 0.23 96 1004.9
20200227022208 1 131 0.0 1.6 0.23 0.97 0.23 96 1005.1
20200227021207 1 105 0.0 8.0 0.23 0.97 0.23 96 1005.2
20200227020208 1 100 0.0 1.6 0.23 0.94 0.20 95 1005.3
20200227015209 1 96 0.0 4.8 0.13 0.84 0.13 95 1005.4
20200227014208 1 248 0.0 4.8 0.00 0.74 0.00 96 1005.5
20200227013207 1 136 0.0 4.8 0.00 0.74 0.00 95 1005.3
20200227012208 1 124 0.0 3.2 0.00 0.74 0.00 95 1005.4
20200227011207 1 133 0.0 3.2 0.00 0.74 0.00 95 1005.4
20200227010208 1 247 0.0 1.6 0.00 0.74 0.00 95 1005.4
20200227005208 1 88 0.0 1.6 0.00 0.74 0.00 94 1005.5
20200227004208 1 185 0.0 1.6 0.00 0.74 0.00 94 1005.4
20200227003207 2 134 0.0 4.8 0.00 0.74 0.00 94 1005.4
20200227002210 2 149 1.6 9.7 0.00 0.79 0.00 94 1005.2
20200227001209 2 191 1.6 16.1 0.00 0.79 0.00 94 1005.3
20200227000207 2 255 3.2 14.5 0.00 0.79 0.79 95 1005.4
20200226235208 1 249 0.0 4.8 0.00 0.79 0.79 95 1005.4
20200226234208 1 165 0.0 4.8 0.00 0.81 0.79 95 1005.5
20200226233208 1 267 0.0 3.2 0.00 0.86 0.79 95 1005.4
20200226232209 1 120 0.0 11.3 0.00 0.89 0.79 95 1005.3
20200226231207 1 193 1.6 8.0 0.00 0.89 0.79 95 1005.3
20200226230208 1 224 0.0 9.7 0.00 0.89 0.79 95 1005.4
20200226225208 1 215 1.6 9.7 0.00 0.89 0.79 95 1005.3
20200226224208 1 136 1.6 8.0 0.00 0.89 0.79 95 1005.4
20200226223207 1 198 0.0 3.2 0.00 0.89 0.79 95 1005.5
20200226222208 1 207 0.0 6.4 0.00 0.89 0.79 95 1005.4
20200226221215 1 220 0.0 1.6 0.00 0.89 0.79 95 1005.4
20200226220208 1 123 0.0 4.8 0.00 0.89 0.79 95 1005.4
20200226215208 1 263 0.0 3.2 0.00 0.89 0.79 94 1005.4
20200226214207 1 208 0.0 1.6 0.00 0.89 0.79 94 1005.3
20200226213207 1 218 0.0 3.2 0.00 0.89 0.79 94 1005.1
20200226212208 1 214 0.0 3.2 0.00 0.89 0.79 94 1005.1
20200226211208 1 226 0.0 1.6 0.00 0.89 0.79 93 1005.1
20200226210208 1 191 0.0 3.2 0.00 0.89 0.79 92 1005.1
20200226205208 1 259 0.0 3.2 0.00 0.89 0.79 92 1005.0
20200226204207 2 239 0.0 4.8 0.00 0.89 0.79 92 1005.0
20200226203208 2 233 1.6 6.4 0.00 0.89 0.79 92 1004.8
20200226202208 2 284 1.6 8.0 0.00 0.89 0.79 92 1004.7
20200226201208 2 236 0.0 8.0 0.00 0.89 0.79 92 1004.7
20200226200207 2 214 1.6 3.2 0.00 0.89 0.79 92 1004.7
20200226195209 2 264 0.0 3.2 0.00 0.89 0.79 91 1004.8
20200226194207 2 217 0.0 1.6 0.00 0.89 0.79 90 1004.7
20200226193209 3 216 0.0 4.8 0.00 0.89 0.79 89 1004.6
20200226192208 3 237 0.0 6.4 0.00 0.89 0.79 90 1004.6
20200226191207 3 259 0.0 6.4 0.00 0.89 0.79 89 1004.5
20200226190207 3 108 0.0 4.8 0.00 0.89 0.79 90 1004.5
20200226185209 3 30 0.0 3.2 0.00 0.89 0.79 89 1004.4
20200226184208 3 177 0.0 3.2 0.00 0.89 0.79 89 1004.4
20200226183208 3 122 0.0 3.2 0.00 0.89 0.79 90 1004.4
20200226182209 3 46 0.0 4.8 0.00 0.89 0.79 89 1004.2
20200226181208 3 94 1.6 4.8 0.00 0.89 0.79 90 1004.1
20200226180207 3 261 1.6 8.0 0.00 0.89 0.79 90 1003.8
20200226175208 3 188 1.6 11.3 0.00 0.89 0.79 90 1003.6
20200226174208 3 110 1.6 8.0 0.00 0.89 0.79 90 1003.4
20200226173207 3 151 1.6 9.7 0.00 0.89 0.79 90 1003.3
20200226172209 3 208 0.0 1.6 0.00 0.89 0.79 90 1003.2
20200226171208 3 240 0.0 4.8 0.00 0.89 0.79 89 1003.0
20200226170208 3 210 1.6 12.9 0.00 0.89 0.79 88 1002.8
20200226165208 3 248 1.6 12.9 0.00 0.89 0.79 87 1002.6
20200226164208 4 204 1.6 12.9 0.00 0.89 0.79 87 1002.4
20200226163209 4 240 1.6 8.0 0.00 0.89 0.79 87 1002.3
20200226162207 4 241 0.0 6.4 0.00 0.89 0.79 88 1002.2
20200226161209 4 198 1.6 9.7 0.00 0.89 0.79 88 1002.1
20200226160209 5 234 1.6 8.0 0.00 0.89 0.79 88 1001.9
20200226155210 5 255 1.6 11.3 0.00 0.89 0.79 88 1001.8
20200226154208 5 156 1.6 16.1 0.00 0.89 0.79 87 1001.5
20200226153209 5 251 3.2 14.5 0.00 0.89 0.79 87 1001.5
20200226152210 5 80 1.6 12.9 0.00 0.89 0.79 87 1001.4
20200226151208 5 269 1.6 12.9 0.00 0.89 0.79 87 1001.1
20200226150207 5 314 1.6 14.5 0.00 0.89 0.79 87 1000.9
20200226145209 5 221 1.6 16.1 0.00 0.89 0.79 88 1000.8
20200226144208 5 219 1.6 12.9 0.03 0.89 0.79 90 1000.8
20200226143207 4 224 3.2 17.7 0.03 0.89 0.79 91 1000.6
20200226142208 4 230 3.2 16.1 0.03 0.89 0.79 93 1000.5
20200226141208 4 105 3.2 11.3 0.05 0.89 0.79 93 1000.4
20200226140207 3 185 3.2 11.3 0.08 0.89 0.79 93 1000.3
20200226135208 3 274 1.6 14.5 0.08 0.89 0.79 94 1000.2
20200226134208 3 193 3.2 19.3 0.05 0.86 0.76 93 1000.0
20200226133208 3 262 1.6 19.3 0.10 0.86 0.76 92 1000.0
20200226132209 3 117 1.6 11.3 0.10 0.86 0.76 91 1000.0
20200226131208 3 271 1.6 24.1 0.05 0.81 0.71 91 999.9
20200226130208 4 250 1.6 19.3 0.05 0.79 0.71 91 999.5
20200226125208 4 296 3.2 19.3 0.05 0.79 0.71 90 999.4
20200226124208 4 179 3.2 11.3 0.03 0.79 0.69 89 999.3
20200226123207 5 277 3.2 11.3 0.00 0.76 0.66 88 999.2